CYYN

Details ICAO CYYN (YYN)
Name Swift Current
Region Canada
Timezone America/Regina (UTC-6.0)
Plans Departing 7
Arriving 8
Stats Elevation 2,680 ft / 817 m (AMSL)
Location 50.291899° -107.691942°
Runways 2
Magnetic Variation 10.722° E
Sunrise 2018-05-25 11:12:46 UTC / 2018-05-25 05:12:46 Local
Sunset 2018-05-26 03:05:34 UTC / 2018-05-25 21:05:34 Local
Advertisement - Login to hide

Runways

ID Width Length Bearing (true) Bearing (mag) Surface Threshold Offset Overrun Length
04 49 ft / 15 m 2,532 ft / 772 m 45.50° 34.78° Asphalt 0 ft / 0 m 0 ft / 0 m
12 151 ft / 46 m 4,257 ft / 1,298 m 135.59° 124.87° Asphalt 0 ft / 0 m 0 ft / 0 m
22 49 ft / 15 m 2,532 ft / 772 m 225.50° 214.78° Asphalt 0 ft / 0 m 0 ft / 0 m
30 151 ft / 46 m 4,257 ft / 1,298 m 315.59° 304.87° Asphalt 0 ft / 0 m 0 ft / 0 m

Map

Weather


0- 5 10 15 20 25 30 35+ Temperature / ° C

Clouds and Precipitation
Forecast for 2018-05-25 06:00 UTC. Updated 3 hours ago

Ground ~20,000 ft ~40,000 ft Winds

METAR

CYYN 250800Z AUTO 28010KT 9SM CLR 13/09 A2970 RMK SLP050 DENSITY ALT 3300FT

TAF

TAF CYYN 250542Z 2506/2518 22015KT P6SM FEW120 BECMG 2506/2508 26015KT FM251600 30015KT P6SM FEW040 RMK FCST BASED ON AUTO OBS. NXT FCST BY 251200Z

Frequencies

Recorded 124.70 MHz AWOS
Tower 122.30 MHz MF
Warning: Do not use this data for real-world aviation or navigation. No guarantee of current accuracy is given.